createdAt,value
2022-10-12T00:01:21.837Z,102294.19
2022-10-12T00:03:51.194Z,102297.47
2022-10-12T00:06:23.254Z,102304.31
2022-10-12T00:08:55.192Z,102303.63
2022-10-12T00:11:29.930Z,102301.72
2022-10-12T00:14:01.377Z,102306.00
2022-10-12T00:16:32.127Z,102308.56
2022-10-12T00:19:02.113Z,102316.00
2022-10-12T00:21:32.519Z,102302.69
2022-10-12T00:24:02.967Z,102313.25
2022-10-12T00:26:33.451Z,102316.63
2022-10-12T00:29:05.520Z,102305.81
2022-10-12T00:31:34.330Z,102311.03
2022-10-12T00:34:05.185Z,102303.63
2022-10-12T00:36:36.160Z,102296.69
2022-10-12T00:39:09.725Z,102294.16
2022-10-12T00:41:42.545Z,102290.53
2022-10-12T00:44:44.326Z,102291.78
2022-10-12T00:47:25.592Z,102288.00
2022-10-12T00:50:03.802Z,102295.63
2022-10-12T00:52:38.814Z,102297.53
2022-10-12T00:55:14.344Z,102297.00
2022-10-12T00:57:47.027Z,102293.53
2022-10-12T01:00:20.726Z,102299.34
2022-10-12T01:02:52.975Z,102296.78
2022-10-12T01:05:23.747Z,102300.47
2022-10-12T01:07:53.310Z,102300.78
2022-10-12T01:10:22.453Z,102305.34
2022-10-12T01:12:54.764Z,102302.91
2022-10-12T01:15:30.759Z,102305.84
2022-10-12T01:18:11.607Z,102308.66
2022-10-12T01:21:12.533Z,102296.44
2022-10-12T01:24:31.557Z,102300.94
2022-10-12T01:27:22.686Z,102299.50
2022-10-12T01:30:23.367Z,102305.75
2022-10-12T01:33:15.389Z,102299.81
2022-10-12T01:35:55.980Z,102298.25
2022-10-12T01:38:45.055Z,102296.69
2022-10-12T01:41:22.359Z,102291.47
2022-10-12T01:43:53.828Z,102292.94
2022-10-12T01:46:46.643Z,102301.34
2022-10-12T01:49:19.880Z,102291.19
2022-10-12T01:52:28.882Z,102295.78
2022-10-12T01:55:24.108Z,102291.38
2022-10-12T01:58:17.763Z,102288.03
2022-10-12T02:00:59.207Z,102298.88
2022-10-12T02:03:38.870Z,102300.91
2022-10-12T02:06:13.685Z,102294.75
2022-10-12T02:08:54.569Z,102303.09
2022-10-12T02:11:27.340Z,102296.97
2022-10-12T02:14:06.399Z,102296.28
2022-10-12T02:16:41.344Z,102299.06
2022-10-12T02:19:20.644Z,102291.22
2022-10-12T02:21:52.860Z,102300.22
2022-10-12T02:24:24.997Z,102297.66
2022-10-12T02:26:56.132Z,102298.47
2022-10-12T02:29:30.882Z,102309.88
2022-10-12T02:32:11.833Z,102307.09
2022-10-12T02:34:50.725Z,102297.38
2022-10-12T02:37:33.694Z,102299.94
2022-10-12T02:40:15.553Z,102294.69
2022-10-12T02:43:11.315Z,102291.03
2022-10-12T02:45:46.318Z,102295.22
2022-10-12T02:48:23.336Z,102303.16
2022-10-12T02:50:59.536Z,102297.91
2022-10-12T02:53:31.804Z,102297.97
2022-10-12T02:56:09.046Z,102302.59
2022-10-12T02:58:37.921Z,102308.66
2022-10-12T03:01:07.174Z,102299.63
2022-10-12T03:03:36.330Z,102302.59
2022-10-12T03:06:07.926Z,102299.19
2022-10-12T03:08:37.120Z,102302.94
2022-10-12T03:11:07.087Z,102301.28
2022-10-12T03:13:36.690Z,102297.81
2022-10-12T03:16:07.742Z,102308.44
2022-10-12T03:18:37.269Z,102301.44
2022-10-12T03:21:09.071Z,102311.19
2022-10-12T03:23:38.759Z,102304.97
2022-10-12T03:26:11.119Z,102312.91
2022-10-12T03:28:40.188Z,102305.69
2022-10-12T03:31:09.349Z,102300.50
2022-10-12T03:33:38.694Z,102297.66
2022-10-12T03:36:11.629Z,102306.50
2022-10-12T03:38:41.257Z,102300.34
2022-10-12T03:41:09.903Z,102294.13
2022-10-12T03:43:38.916Z,102300.22
2022-10-12T03:46:08.096Z,102303.81
2022-10-12T03:48:37.043Z,102304.75
2022-10-12T03:51:11.136Z,102302.22
2022-10-12T03:53:45.194Z,102306.56
2022-10-12T03:56:15.467Z,102303.94
2022-10-12T03:58:47.129Z,102311.34
2022-10-12T04:01:16.600Z,102305.41
2022-10-12T04:03:45.699Z,102307.47
2022-10-12T04:06:16.481Z,102299.09
2022-10-12T04:08:49.852Z,102304.06
2022-10-12T04:11:20.857Z,102304.34
2022-10-12T04:13:50.368Z,102302.19
2022-10-12T04:16:20.319Z,102299.03
2022-10-12T04:18:52.048Z,102296.72
2022-10-12T04:21:25.866Z,102302.19
2022-10-12T04:23:55.301Z,102308.53
2022-10-12T04:26:27.378Z,102294.25
2022-10-12T04:28:59.435Z,102303.06
2022-10-12T04:31:31.797Z,102300.25
2022-10-12T04:34:01.030Z,102306.41
2022-10-12T04:36:31.529Z,102313.50
2022-10-12T04:39:01.377Z,102302.81
2022-10-12T04:41:32.453Z,102303.69
2022-10-12T04:44:02.462Z,102301.78
2022-10-12T04:46:31.329Z,102305.41
2022-10-12T04:49:00.613Z,102314.22
2022-10-12T04:51:30.976Z,102312.34
2022-10-12T04:54:04.337Z,102298.06
2022-10-12T04:56:33.231Z,102305.16
2022-10-12T04:59:01.995Z,102304.28
2022-10-12T05:01:31.098Z,102312.34
2022-10-12T05:04:00.402Z,102311.69
2022-10-12T05:06:30.790Z,102316.38
2022-10-12T05:08:59.606Z,102313.97
2022-10-12T05:11:28.684Z,102318.28
2022-10-12T05:13:57.333Z,102313.81
2022-10-12T05:16:26.266Z,102318.34
2022-10-12T05:18:55.150Z,102323.84
2022-10-12T05:21:24.024Z,102318.75
2022-10-12T05:23:54.985Z,102326.78
2022-10-12T05:26:23.760Z,102324.31
2022-10-12T05:28:52.796Z,102320.88
2022-10-12T05:31:21.482Z,102320.88
2022-10-12T05:33:50.811Z,102327.84
2022-10-12T05:36:21.080Z,102331.31
2022-10-12T05:38:50.210Z,102320.34
2022-10-12T05:41:26.254Z,102325.69
2022-10-12T05:43:54.932Z,102327.44
2022-10-12T05:46:24.217Z,102332.59
2022-10-12T05:48:53.041Z,102327.19
2022-10-12T05:51:26.529Z,102328.91
2022-10-12T05:53:57.693Z,102323.78
2022-10-12T05:56:28.451Z,102327.31
2022-10-12T05:58:59.473Z,102330.78
2022-10-12T06:01:28.525Z,102337.66
2022-10-12T06:03:57.942Z,102334.00
2022-10-12T06:06:27.116Z,102334.81
2022-10-12T06:08:56.091Z,102332.06
2022-10-12T06:11:26.603Z,102325.72
2022-10-12T06:13:55.491Z,102327.84
2022-10-12T06:16:24.297Z,102324.72
2022-10-12T06:18:53.652Z,102333.88
2022-10-12T06:21:32.889Z,102338.53
2022-10-12T06:24:02.361Z,102334.22
2022-10-12T06:26:32.895Z,102335.78
2022-10-12T06:29:02.287Z,102339.41
2022-10-12T06:31:32.505Z,102347.22
2022-10-12T06:34:01.796Z,102346.97
2022-10-12T06:36:30.688Z,102349.38
2022-10-12T06:38:59.441Z,102343.75
2022-10-12T06:41:28.928Z,102338.97
2022-10-12T06:43:59.268Z,102342.47
2022-10-12T06:46:28.297Z,102348.81
2022-10-12T06:48:57.224Z,102353.16
2022-10-12T06:51:26.107Z,102354.19
2022-10-12T06:53:56.635Z,102350.06
2022-10-12T06:56:25.444Z,102351.34
2022-10-12T06:58:58.828Z,102349.47
2022-10-12T07:01:28.283Z,102351.28
2022-10-12T07:04:00.664Z,102358.38
2022-10-12T07:06:30.190Z,102352.88
2022-10-12T07:08:59.212Z,102348.94
2022-10-12T07:11:28.192Z,102343.47
2022-10-12T07:14:00.473Z,102343.22
2022-10-12T07:16:30.089Z,102345.09
2022-10-12T07:18:59.410Z,102347.28
2022-10-12T07:21:28.293Z,102337.75
2022-10-12T07:23:57.177Z,102346.19
2022-10-12T07:26:26.152Z,102349.13
2022-10-12T07:28:56.350Z,102350.91
2022-10-12T07:31:27.400Z,102329.34
2022-10-12T07:33:57.117Z,102291.88
2022-10-12T07:36:40.973Z,102271.38
2022-10-12T07:39:14.333Z,102257.50
2022-10-12T07:41:43.357Z,102248.41
2022-10-12T07:44:12.523Z,102252.75
2022-10-12T07:46:43.070Z,102251.44
2022-10-12T07:49:15.332Z,102259.41
2022-10-12T07:51:46.528Z,102247.25
2022-10-12T07:54:20.969Z,102253.81
2022-10-12T07:56:51.659Z,102253.31
2022-10-12T07:59:21.838Z,102251.84
2022-10-12T08:01:52.585Z,102254.19
2022-10-12T08:04:21.497Z,102256.38
2022-10-12T08:06:50.915Z,102257.03
2022-10-12T08:09:19.957Z,102257.69
2022-10-12T08:11:55.182Z,102254.63
2022-10-12T08:14:24.373Z,102266.91
2022-10-12T08:16:55.518Z,102257.66
2022-10-12T08:19:24.434Z,102265.78
2022-10-12T08:21:54.152Z,102270.63
2022-10-12T08:24:23.483Z,102268.16
2022-10-12T08:26:52.590Z,102265.22
2022-10-12T08:29:23.404Z,102270.28
2022-10-12T08:31:55.775Z,102265.56
2022-10-12T08:34:25.520Z,102274.84
2022-10-12T08:36:54.507Z,102272.72
2022-10-12T08:39:24.094Z,102265.75
2022-10-12T08:42:12.517Z,102273.56
2022-10-12T08:45:01.074Z,102262.63
2022-10-12T08:47:42.892Z,102268.44
2022-10-12T08:50:23.992Z,102263.06
2022-10-12T08:53:02.562Z,102271.44
2022-10-12T08:55:42.410Z,102267.44
2022-10-12T08:58:20.797Z,102260.09
2022-10-12T09:00:54.239Z,102261.69
2022-10-12T09:03:45.887Z,102255.44
2022-10-12T09:06:21.391Z,102253.19
2022-10-12T09:09:07.033Z,102261.88
2022-10-12T09:12:02.759Z,102263.19
2022-10-12T09:14:37.766Z,102261.38
2022-10-12T09:17:26.278Z,102262.78
2022-10-12T09:20:08.561Z,102264.78
2022-10-12T09:22:38.158Z,102262.81
2022-10-12T09:25:14.845Z,102266.53
2022-10-12T09:27:47.715Z,102265.94
2022-10-12T09:30:19.686Z,102265.22
2022-10-12T09:33:22.370Z,102260.03
2022-10-12T09:35:57.663Z,102269.34
2022-10-12T09:38:26.400Z,102265.69
2022-10-12T09:41:09.711Z,102272.31
2022-10-12T09:43:38.337Z,102269.41
2022-10-12T09:46:15.685Z,102268.22
2022-10-12T09:48:59.831Z,102266.25
2022-10-12T09:51:32.562Z,102266.44
2022-10-12T09:54:07.101Z,102260.66
2022-10-12T09:56:44.589Z,102253.75
2022-10-12T09:59:32.315Z,102255.25
2022-10-12T10:02:16.022Z,102259.97
2022-10-12T10:04:46.820Z,102256.50
2022-10-12T10:07:33.537Z,102259.94
2022-10-12T10:10:17.296Z,102249.44
2022-10-12T10:12:53.221Z,102249.59
2022-10-12T10:15:28.150Z,102254.59
2022-10-12T10:18:01.178Z,102249.00
2022-10-12T10:20:35.684Z,102252.53
2022-10-12T10:23:07.038Z,102245.19
2022-10-12T10:25:59.262Z,102256.00
2022-10-12T10:28:33.134Z,102249.09
2022-10-12T10:31:06.212Z,102256.78
2022-10-12T10:33:38.335Z,102241.16
2022-10-12T10:36:20.735Z,102242.78
2022-10-12T10:39:02.448Z,102246.78
2022-10-12T10:41:39.075Z,102249.16
2022-10-12T10:44:25.620Z,102236.66
2022-10-12T10:46:56.025Z,102242.22
2022-10-12T10:49:36.202Z,102235.38
2022-10-12T10:52:07.404Z,102231.84
2022-10-12T10:54:39.573Z,102228.31
2022-10-12T10:57:14.931Z,102233.97
2022-10-12T11:00:37.971Z,102229.59
2022-10-12T11:03:14.454Z,102232.91
2022-10-12T11:05:51.024Z,102219.59
2022-10-12T11:08:26.292Z,102222.56
2022-10-12T11:11:03.235Z,102219.69
2022-10-12T11:13:39.887Z,102228.41
2022-10-12T11:16:33.950Z,102222.84
2022-10-12T11:19:18.686Z,102218.91
2022-10-12T11:21:55.418Z,102218.81
2022-10-12T11:24:36.496Z,102217.72
2022-10-12T11:27:17.163Z,102217.94
2022-10-12T11:29:57.986Z,102216.63
2022-10-12T11:32:44.054Z,102215.47
2022-10-12T11:35:19.690Z,102203.53
2022-10-12T11:37:56.381Z,102205.31
2022-10-12T11:40:55.643Z,102208.47
2022-10-12T11:43:26.776Z,102204.94
2022-10-12T11:46:03.216Z,102204.94
2022-10-12T11:48:41.829Z,102205.03
2022-10-12T11:51:16.259Z,102197.53
2022-10-12T11:53:58.714Z,102197.13
2022-10-12T11:56:34.167Z,102195.50
2022-10-12T11:59:16.448Z,102188.28
2022-10-12T12:02:03.539Z,102190.16
2022-10-12T12:04:43.424Z,102185.56
2022-10-12T12:07:48.463Z,102178.53
2022-10-12T12:10:52.987Z,102182.00
2022-10-12T12:13:27.600Z,102182.84
2022-10-12T12:16:34.950Z,102172.34
2022-10-12T12:19:38.632Z,102157.59
2022-10-12T12:22:52.390Z,102160.44
2022-10-12T12:25:32.480Z,102164.41
2022-10-12T12:28:22.871Z,102161.88
2022-10-12T12:31:02.790Z,102147.66
2022-10-12T12:33:42.041Z,102144.56
2022-10-12T12:36:17.413Z,102139.69
2022-10-12T12:38:53.373Z,102135.66
2022-10-12T12:41:25.916Z,102139.38
2022-10-12T12:44:01.084Z,102122.22
2022-10-12T12:47:43.991Z,102120.78
2022-10-12T12:50:35.697Z,102118.19
2022-10-12T12:53:14.376Z,102130.13
2022-10-12T12:56:05.449Z,102117.50
2022-10-12T12:59:02.785Z,102111.47
2022-10-12T13:02:03.831Z,102111.91
2022-10-12T13:05:11.721Z,102113.19
2022-10-12T13:08:14.466Z,102107.94
2022-10-12T13:11:05.708Z,102109.22
2022-10-12T13:14:00.380Z,102113.41
2022-10-12T13:19:56.510Z,102097.00
2022-10-12T13:22:35.910Z,102096.88
2022-10-12T13:25:14.842Z,102096.25
2022-10-12T13:27:49.882Z,102091.28
2022-10-12T13:30:31.956Z,102100.03
2022-10-12T13:33:09.459Z,102094.91
2022-10-12T13:35:47.722Z,102087.84
2022-10-12T13:38:24.451Z,102077.81
2022-10-12T13:41:04.701Z,102082.88
2022-10-12T13:43:44.165Z,102075.47
2022-10-12T13:46:16.010Z,102068.69
2022-10-12T13:48:59.627Z,102063.38
2022-10-12T13:51:32.544Z,102069.78
2022-10-12T13:54:02.158Z,102068.41
2022-10-12T13:56:32.820Z,102062.34
2022-10-12T13:59:07.115Z,102057.50
2022-10-12T14:01:51.311Z,102063.81
2022-10-12T14:04:21.803Z,102064.31
2022-10-12T14:07:03.293Z,102060.31
2022-10-12T14:09:43.180Z,102049.66
2022-10-12T14:12:15.348Z,102053.19
2022-10-12T14:14:48.219Z,102050.84
2022-10-12T14:17:18.820Z,102052.75
2022-10-12T14:19:52.461Z,102067.69
2022-10-12T14:22:26.391Z,102067.25
2022-10-12T14:25:12.603Z,102068.00
2022-10-12T14:27:43.645Z,102068.09
2022-10-12T14:30:22.670Z,102058.22
2022-10-12T14:32:56.127Z,102061.56
2022-10-12T14:35:30.829Z,102055.56
2022-10-12T14:38:00.082Z,102054.88
2022-10-12T14:40:40.125Z,102040.31
2022-10-12T14:43:24.782Z,102036.59
2022-10-12T14:45:53.676Z,102028.00
2022-10-12T14:48:24.089Z,102028.59
2022-10-12T14:50:53.626Z,102036.47
2022-10-12T14:53:22.654Z,102034.34
2022-10-12T14:55:54.522Z,102024.72
2022-10-12T14:58:26.667Z,102016.63
2022-10-12T15:00:55.669Z,102026.63
2022-10-12T15:03:24.728Z,102021.63
2022-10-12T15:05:53.558Z,102021.50
2022-10-12T15:08:22.549Z,102025.53
2022-10-12T15:10:53.456Z,102022.22
2022-10-12T15:13:30.356Z,102022.88
2022-10-12T15:16:05.464Z,102015.75
2022-10-12T15:18:37.999Z,102017.19
2022-10-12T15:21:07.022Z,101999.06
2022-10-12T15:23:36.071Z,102007.69
2022-10-12T15:26:05.510Z,101997.41
2022-10-12T15:28:38.247Z,101989.59
2022-10-12T15:31:23.318Z,101986.94
2022-10-12T15:33:57.132Z,101990.47
2022-10-12T15:36:27.011Z,101985.84
2022-10-12T15:38:56.027Z,101987.03
2022-10-12T15:41:28.166Z,101978.44
2022-10-12T15:43:58.934Z,101981.50
2022-10-12T15:46:30.401Z,101975.09
2022-10-12T15:48:59.587Z,101981.63
2022-10-12T15:51:31.140Z,101995.50
2022-10-12T15:53:59.990Z,101993.25
2022-10-12T15:56:30.546Z,101997.50
2022-10-12T15:59:01.341Z,101991.72
2022-10-12T16:01:35.421Z,101995.97
2022-10-12T16:04:05.858Z,101989.19
2022-10-12T16:06:36.358Z,101989.78
2022-10-12T16:09:05.362Z,101987.91
2022-10-12T16:11:40.612Z,101990.84
2022-10-12T16:14:14.981Z,101998.91
2022-10-12T16:16:43.820Z,101993.84
2022-10-12T16:19:12.657Z,101995.13
2022-10-12T16:21:41.941Z,102000.06
2022-10-12T16:24:11.521Z,101998.56
2022-10-12T16:26:44.840Z,102003.09
2022-10-12T16:29:16.757Z,101990.28
2022-10-12T16:31:45.451Z,101998.38
2022-10-12T16:34:14.386Z,101997.59
2022-10-12T16:36:43.890Z,102004.13
2022-10-12T16:39:13.230Z,101996.28
2022-10-12T16:41:42.680Z,101983.31
2022-10-12T16:44:11.928Z,101989.09
2022-10-12T16:46:42.135Z,101993.31
2022-10-12T16:49:11.036Z,101986.22
2022-10-12T16:51:42.672Z,101987.22
2022-10-12T16:54:12.751Z,101990.41
2022-10-12T16:56:43.040Z,101986.97
2022-10-12T16:59:14.626Z,101988.56
2022-10-12T17:01:46.216Z,101989.66
2022-10-12T17:04:15.448Z,101984.75
2022-10-12T17:06:46.308Z,101991.31
2022-10-12T17:09:15.752Z,101990.19
2022-10-12T17:11:48.430Z,101991.63
2022-10-12T17:14:18.612Z,101994.72
2022-10-12T17:16:57.637Z,101999.81
2022-10-12T17:19:29.965Z,101998.53
2022-10-12T17:21:59.797Z,101999.88
2022-10-12T17:24:31.368Z,101999.47
2022-10-12T17:27:03.409Z,101996.78
2022-10-12T17:29:36.527Z,101998.94
2022-10-12T17:32:08.337Z,101990.50
2022-10-12T17:34:41.233Z,101992.16
2022-10-12T17:37:13.352Z,102003.50
2022-10-12T17:39:45.737Z,101995.00
2022-10-12T17:42:15.049Z,101997.22
2022-10-12T17:44:44.605Z,101989.34
2022-10-12T17:47:21.979Z,101990.16
2022-10-12T17:49:55.915Z,101997.53
2022-10-12T17:52:25.373Z,101996.50
2022-10-12T17:54:54.151Z,101993.44
2022-10-12T17:57:23.144Z,102001.13
2022-10-12T17:59:52.426Z,101995.16
2022-10-12T18:02:22.822Z,102002.38
2022-10-12T18:04:53.741Z,101998.63
2022-10-12T18:07:25.474Z,101993.50
2022-10-12T18:09:54.906Z,101991.88
2022-10-12T18:12:24.195Z,101991.28
2022-10-12T18:14:52.973Z,101989.22
2022-10-12T18:17:23.868Z,101989.84
2022-10-12T18:19:53.787Z,101990.78
2022-10-12T18:22:23.579Z,101994.41
2022-10-12T18:24:53.311Z,101988.75
2022-10-12T18:27:22.129Z,101984.28
2022-10-12T18:29:53.745Z,101995.13
2022-10-12T18:32:27.505Z,101987.63
2022-10-12T18:34:59.433Z,101983.53
2022-10-12T18:37:30.384Z,101985.34
2022-10-12T18:39:59.288Z,102003.25
2022-10-12T18:42:27.969Z,101998.75
2022-10-12T18:44:57.580Z,102005.50
2022-10-12T18:47:29.675Z,101998.78
2022-10-12T18:50:00.081Z,101996.56
2022-10-12T18:52:29.099Z,102000.66
2022-10-12T18:54:58.059Z,101991.63
2022-10-12T18:57:31.125Z,101997.06
2022-10-12T19:00:03.906Z,101995.31
2022-10-12T19:02:36.332Z,101995.38
2022-10-12T19:05:07.163Z,101987.97
2022-10-12T19:07:41.639Z,101987.53
2022-10-12T19:10:11.762Z,101987.31
2022-10-12T19:12:45.522Z,101976.97
2022-10-12T19:15:14.788Z,101984.09
2022-10-12T19:17:45.922Z,101978.47
2022-10-12T19:20:15.572Z,101973.66
2022-10-12T19:22:44.633Z,101972.22
2022-10-12T19:25:13.239Z,101969.31
2022-10-12T19:27:42.125Z,101973.34
2022-10-12T19:30:13.076Z,101974.94
2022-10-12T19:32:43.683Z,101972.63
2022-10-12T19:35:12.409Z,101972.25
2022-10-12T19:37:42.346Z,101976.06
2022-10-12T19:40:14.473Z,101967.78
2022-10-12T19:42:48.503Z,101960.25
2022-10-12T19:45:17.358Z,101983.91
2022-10-12T19:47:48.077Z,101966.28
2022-10-12T19:50:17.215Z,101968.97
2022-10-12T19:52:48.571Z,101963.47
2022-10-12T19:55:22.989Z,101961.91
2022-10-12T19:57:52.197Z,101958.06
2022-10-12T20:00:21.460Z,101964.22
2022-10-12T20:02:54.830Z,101961.75
2022-10-12T20:05:23.595Z,101965.63
2022-10-12T20:07:55.816Z,101967.47
2022-10-12T20:10:24.759Z,101968.66
2022-10-12T20:12:55.592Z,101968.06
2022-10-12T20:18:18.343Z,101961.84
2022-10-12T20:20:47.451Z,101958.59
2022-10-12T20:23:16.762Z,101967.56
2022-10-12T20:25:48.696Z,101968.50
2022-10-12T20:28:19.763Z,101971.25
2022-10-12T20:30:50.296Z,101969.47
2022-10-12T20:33:20.590Z,101968.09
2022-10-12T20:35:50.635Z,101966.41
2022-10-12T20:38:20.927Z,101963.81
2022-10-12T20:40:49.944Z,101964.84
2022-10-12T20:43:18.970Z,101962.47
2022-10-12T20:45:47.733Z,101971.56
2022-10-12T20:48:20.887Z,101958.25
2022-10-12T20:50:49.790Z,101955.63
2022-10-12T20:53:18.601Z,101954.63
2022-10-12T20:55:47.696Z,101947.91
2022-10-12T20:58:16.233Z,101954.44
2022-10-12T21:00:45.046Z,101956.19
2022-10-12T21:03:13.713Z,101956.13
2022-10-12T21:05:43.774Z,101950.72
2022-10-12T21:08:12.548Z,101946.34
2022-10-12T21:10:48.480Z,101943.50
2022-10-12T21:13:17.245Z,101939.66
2022-10-12T21:15:52.586Z,101934.34
2022-10-12T21:18:22.218Z,101940.09
2022-10-12T21:21:01.684Z,101927.66
2022-10-12T21:23:30.747Z,101944.88
2022-10-12T21:25:59.768Z,101941.91
2022-10-12T21:28:28.976Z,101937.63
2022-10-12T21:31:00.702Z,101937.50
2022-10-12T21:33:29.677Z,101930.31
2022-10-12T21:36:08.856Z,101927.66
2022-10-12T21:38:38.292Z,101926.97
2022-10-12T21:41:09.282Z,101936.81
2022-10-12T21:43:39.520Z,101935.47
2022-10-12T21:46:12.673Z,101932.25
2022-10-12T21:48:42.363Z,101927.16
2022-10-12T21:51:17.118Z,101925.44
2022-10-12T21:53:46.044Z,101926.31
2022-10-12T21:56:20.344Z,101925.69
2022-10-12T21:58:50.480Z,101925.50
2022-10-12T22:01:23.240Z,101914.66
2022-10-12T22:03:56.219Z,101918.50
2022-10-12T22:06:28.981Z,101914.78
2022-10-12T22:09:00.245Z,101918.00
2022-10-12T22:11:31.467Z,101917.19
2022-10-12T22:14:04.615Z,101924.63
2022-10-12T22:16:36.891Z,101919.34
2022-10-12T22:19:14.446Z,101915.50
2022-10-12T22:21:44.693Z,101904.97
2022-10-12T22:24:13.767Z,101905.22
2022-10-12T22:26:43.907Z,101907.47
2022-10-12T22:29:13.130Z,101912.28
2022-10-12T22:31:44.572Z,101907.13
2022-10-12T22:34:13.637Z,101912.34
2022-10-12T22:36:44.349Z,101902.84
2022-10-12T22:39:13.716Z,101905.69
2022-10-12T22:41:42.783Z,101903.16
2022-10-12T22:44:11.765Z,101890.22
2022-10-12T22:46:40.546Z,101885.47
2022-10-12T22:49:09.371Z,101890.47
2022-10-12T22:51:43.667Z,101882.09
2022-10-12T22:54:14.083Z,101883.09
2022-10-12T22:56:43.496Z,101882.69
2022-10-12T22:59:15.687Z,101872.69
2022-10-12T23:01:45.138Z,101873.00
2022-10-12T23:04:14.124Z,101873.25
2022-10-12T23:06:42.948Z,101870.75
2022-10-12T23:09:11.757Z,101871.38
2022-10-12T23:11:42.142Z,101872.50
2022-10-12T23:14:12.799Z,101864.53
2022-10-12T23:16:41.971Z,101861.31
2022-10-12T23:19:12.017Z,101861.94
2022-10-12T23:21:42.835Z,101869.47
2022-10-12T23:24:12.307Z,101868.50
2022-10-12T23:26:42.905Z,101866.28
2022-10-12T23:29:11.690Z,101862.41
2022-10-12T23:31:42.631Z,101864.22
2022-10-12T23:34:13.118Z,101860.88
2022-10-12T23:36:41.776Z,101854.69
2022-10-12T23:39:11.684Z,101866.19
2022-10-12T23:41:43.201Z,101869.88
2022-10-12T23:44:12.185Z,101864.88
2022-10-12T23:46:41.200Z,101860.63
2022-10-12T23:49:10.518Z,101860.72
2022-10-12T23:51:41.102Z,101851.97
2022-10-12T23:54:11.705Z,101850.59
2022-10-12T23:56:41.862Z,101856.69
2022-10-12T23:59:10.754Z,101852.38
